sensor_id;sensor_type;location;lat;lon;timestamp;P1;durP1;ratioP1;P2;durP2;ratioP2
19617;SDS011;9956;51.006;13.670;2023-09-19T00:00:32;1.80;;;1.17;;
19617;SDS011;9956;51.006;13.670;2023-09-19T00:05:35;2.55;;;1.50;;
19617;SDS011;9956;51.006;13.670;2023-09-19T00:10:38;2.42;;;1.02;;
19617;SDS011;9956;51.006;13.670;2023-09-19T00:15:42;2.97;;;1.27;;
19617;SDS011;9956;51.006;13.670;2023-09-19T00:20:50;3.13;;;1.27;;
19617;SDS011;9956;51.006;13.670;2023-09-19T00:25:51;1.90;;;1.05;;
19617;SDS011;9956;51.006;13.670;2023-09-19T00:30:51;2.83;;;1.27;;
19617;SDS011;9956;51.006;13.670;2023-09-19T00:35:52;3.63;;;1.33;;
19617;SDS011;9956;51.006;13.670;2023-09-19T00:40:54;3.25;;;1.42;;
19617;SDS011;9956;51.006;13.670;2023-09-19T00:45:55;5.15;;;1.75;;
19617;SDS011;9956;51.006;13.670;2023-09-19T00:50:57;3.08;;;1.63;;
19617;SDS011;9956;51.006;13.670;2023-09-19T00:56:00;5.60;;;2.15;;
19617;SDS011;9956;51.006;13.670;2023-09-19T01:01:02;1.23;;;1.10;;
19617;SDS011;9956;51.006;13.670;2023-09-19T01:06:09;2.85;;;1.48;;
19617;SDS011;9956;51.006;13.670;2023-09-19T01:11:14;2.75;;;1.50;;
19617;SDS011;9956;51.006;13.670;2023-09-19T01:21:51;2.08;;;1.55;;
19617;SDS011;9956;51.006;13.670;2023-09-19T01:32:20;2.75;;;1.50;;
19617;SDS011;9956;51.006;13.670;2023-09-19T01:37:25;2.10;;;1.23;;
19617;SDS011;9956;51.006;13.670;2023-09-19T01:47:40;2.55;;;1.60;;
19617;SDS011;9956;51.006;13.670;2023-09-19T01:52:57;2.65;;;1.08;;
19617;SDS011;9956;51.006;13.670;2023-09-19T01:58:27;2.08;;;1.30;;
19617;SDS011;9956;51.006;13.670;2023-09-19T02:03:34;2.50;;;1.33;;
19617;SDS011;9956;51.006;13.670;2023-09-19T02:08:35;2.22;;;1.10;;
19617;SDS011;9956;51.006;13.670;2023-09-19T02:13:36;2.45;;;0.80;;
19617;SDS011;9956;51.006;13.670;2023-09-19T02:18:38;2.40;;;0.88;;
19617;SDS011;9956;51.006;13.670;2023-09-19T02:23:39;1.95;;;1.00;;
19617;SDS011;9956;51.006;13.670;2023-09-19T02:28:41;2.13;;;1.00;;
19617;SDS011;9956;51.006;13.670;2023-09-19T02:33:43;1.17;;;0.95;;
19617;SDS011;9956;51.006;13.670;2023-09-19T02:38:43;4.57;;;1.02;;
19617;SDS011;9956;51.006;13.670;2023-09-19T02:43:44;2.45;;;0.90;;
19617;SDS011;9956;51.006;13.670;2023-09-19T02:48:44;2.70;;;0.73;;
19617;SDS011;9956;51.006;13.670;2023-09-19T02:53:45;1.30;;;0.90;;
19617;SDS011;9956;51.006;13.670;2023-09-19T02:58:47;1.73;;;0.90;;
19617;SDS011;9956;51.006;13.670;2023-09-19T03:03:48;1.70;;;1.17;;
19617;SDS011;9956;51.006;13.670;2023-09-19T03:08:49;1.58;;;0.90;;
19617;SDS011;9956;51.006;13.670;2023-09-19T03:13:55;1.77;;;0.90;;
19617;SDS011;9956;51.006;13.670;2023-09-19T03:18:56;2.55;;;0.95;;
19617;SDS011;9956;51.006;13.670;2023-09-19T03:23:58;3.22;;;1.10;;
19617;SDS011;9956;51.006;13.670;2023-09-19T03:28:59;4.57;;;0.98;;
19617;SDS011;9956;51.006;13.670;2023-09-19T03:34:00;2.00;;;1.00;;
19617;SDS011;9956;51.006;13.670;2023-09-19T03:39:01;2.17;;;1.20;;
19617;SDS011;9956;51.006;13.670;2023-09-19T03:44:05;2.95;;;1.17;;
19617;SDS011;9956;51.006;13.670;2023-09-19T03:49:07;2.28;;;1.20;;
19617;SDS011;9956;51.006;13.670;2023-09-19T03:54:08;2.38;;;1.38;;
19617;SDS011;9956;51.006;13.670;2023-09-19T03:59:09;1.58;;;1.00;;
19617;SDS011;9956;51.006;13.670;2023-09-19T04:04:10;2.22;;;1.15;;
19617;SDS011;9956;51.006;13.670;2023-09-19T04:09:13;2.00;;;1.35;;
19617;SDS011;9956;51.006;13.670;2023-09-19T04:14:14;1.42;;;1.00;;
19617;SDS011;9956;51.006;13.670;2023-09-19T04:19:14;2.00;;;1.30;;
19617;SDS011;9956;51.006;13.670;2023-09-19T04:24:15;5.75;;;1.27;;
19617;SDS011;9956;51.006;13.670;2023-09-19T04:29:15;2.38;;;1.30;;
19617;SDS011;9956;51.006;13.670;2023-09-19T04:34:15;1.40;;;1.08;;
19617;SDS011;9956;51.006;13.670;2023-09-19T04:39:16;1.73;;;1.17;;
19617;SDS011;9956;51.006;13.670;2023-09-19T04:44:18;2.88;;;1.30;;
19617;SDS011;9956;51.006;13.670;2023-09-19T04:49:18;2.17;;;0.90;;
19617;SDS011;9956;51.006;13.670;2023-09-19T04:54:19;1.92;;;0.90;;
19617;SDS011;9956;51.006;13.670;2023-09-19T04:59:19;2.92;;;1.27;;
19617;SDS011;9956;51.006;13.670;2023-09-19T05:04:19;1.95;;;1.05;;
19617;SDS011;9956;51.006;13.670;2023-09-19T05:09:20;5.32;;;1.50;;
19617;SDS011;9956;51.006;13.670;2023-09-19T05:14:20;2.13;;;1.23;;
19617;SDS011;9956;51.006;13.670;2023-09-19T05:19:21;2.25;;;1.02;;
19617;SDS011;9956;51.006;13.670;2023-09-19T05:24:21;2.78;;;1.38;;
19617;SDS011;9956;51.006;13.670;2023-09-19T05:29:23;2.58;;;1.08;;
19617;SDS011;9956;51.006;13.670;2023-09-19T05:34:24;2.35;;;1.20;;
19617;SDS011;9956;51.006;13.670;2023-09-19T05:39:33;3.15;;;1.35;;
19617;SDS011;9956;51.006;13.670;2023-09-19T05:44:33;3.25;;;0.90;;
19617;SDS011;9956;51.006;13.670;2023-09-19T05:49:37;3.33;;;1.20;;
19617;SDS011;9956;51.006;13.670;2023-09-19T05:54:38;1.95;;;1.02;;
19617;SDS011;9956;51.006;13.670;2023-09-19T05:59:38;3.28;;;1.02;;
19617;SDS011;9956;51.006;13.670;2023-09-19T06:04:40;1.73;;;0.93;;
19617;SDS011;9956;51.006;13.670;2023-09-19T06:09:41;2.08;;;1.25;;
19617;SDS011;9956;51.006;13.670;2023-09-19T06:14:41;1.30;;;1.20;;
19617;SDS011;9956;51.006;13.670;2023-09-19T06:19:42;3.13;;;1.38;;
19617;SDS011;9956;51.006;13.670;2023-09-19T06:24:46;1.35;;;0.88;;
19617;SDS011;9956;51.006;13.670;2023-09-19T06:29:47;2.20;;;1.38;;
19617;SDS011;9956;51.006;13.670;2023-09-19T06:34:51;2.17;;;1.60;;
19617;SDS011;9956;51.006;13.670;2023-09-19T06:39:55;4.10;;;1.50;;
19617;SDS011;9956;51.006;13.670;2023-09-19T06:44:57;2.20;;;1.20;;
19617;SDS011;9956;51.006;13.670;2023-09-19T06:49:57;2.70;;;1.45;;
19617;SDS011;9956;51.006;13.670;2023-09-19T06:54:58;2.15;;;1.40;;
19617;SDS011;9956;51.006;13.670;2023-09-19T06:59:58;3.22;;;1.40;;
19617;SDS011;9956;51.006;13.670;2023-09-19T07:05:01;2.58;;;1.02;;
19617;SDS011;9956;51.006;13.670;2023-09-19T07:10:02;2.88;;;1.48;;
19617;SDS011;9956;51.006;13.670;2023-09-19T07:15:06;2.78;;;1.10;;
19617;SDS011;9956;51.006;13.670;2023-09-19T07:20:06;1.58;;;0.85;;
19617;SDS011;9956;51.006;13.670;2023-09-19T07:25:08;1.75;;;0.93;;
19617;SDS011;9956;51.006;13.670;2023-09-19T07:30:09;4.00;;;1.00;;
19617;SDS011;9956;51.006;13.670;2023-09-19T07:35:10;1.67;;;1.05;;
19617;SDS011;9956;51.006;13.670;2023-09-19T07:40:11;1.85;;;1.10;;
19617;SDS011;9956;51.006;13.670;2023-09-19T07:45:12;2.40;;;1.00;;
19617;SDS011;9956;51.006;13.670;2023-09-19T07:50:18;1.65;;;0.82;;
19617;SDS011;9956;51.006;13.670;2023-09-19T07:55:20;1.20;;;0.85;;
19617;SDS011;9956;51.006;13.670;2023-09-19T08:00:26;1.90;;;0.77;;
19617;SDS011;9956;51.006;13.670;2023-09-19T08:05:26;2.17;;;0.75;;
19617;SDS011;9956;51.006;13.670;2023-09-19T08:10:27;1.17;;;0.82;;
19617;SDS011;9956;51.006;13.670;2023-09-19T08:15:28;0.98;;;0.60;;
19617;SDS011;9956;51.006;13.670;2023-09-19T08:20:28;1.88;;;0.82;;
19617;SDS011;9956;51.006;13.670;2023-09-19T08:25:29;0.90;;;0.68;;
19617;SDS011;9956;51.006;13.670;2023-09-19T08:30:30;1.75;;;1.00;;
19617;SDS011;9956;51.006;13.670;2023-09-19T08:35:30;1.42;;;0.88;;
19617;SDS011;9956;51.006;13.670;2023-09-19T08:40:31;1.58;;;0.90;;
19617;SDS011;9956;51.006;13.670;2023-09-19T08:45:33;3.35;;;0.88;;
19617;SDS011;9956;51.006;13.670;2023-09-19T08:50:36;3.47;;;1.00;;
19617;SDS011;9956;51.006;13.670;2023-09-19T08:55:41;1.90;;;0.60;;
19617;SDS011;9956;51.006;13.670;2023-09-19T09:00:44;1.95;;;0.98;;
19617;SDS011;9956;51.006;13.670;2023-09-19T09:05:46;1.38;;;1.00;;
19617;SDS011;9956;51.006;13.670;2023-09-19T09:10:47;3.70;;;1.00;;
19617;SDS011;9956;51.006;13.670;2023-09-19T09:15:48;2.00;;;1.00;;
19617;SDS011;9956;51.006;13.670;2023-09-19T09:20:48;3.22;;;0.70;;
19617;SDS011;9956;51.006;13.670;2023-09-19T09:25:50;1.90;;;0.90;;
19617;SDS011;9956;51.006;13.670;2023-09-19T09:30:58;1.88;;;1.02;;
19617;SDS011;9956;51.006;13.670;2023-09-19T09:35:59;3.22;;;0.75;;
19617;SDS011;9956;51.006;13.670;2023-09-19T09:41:00;1.20;;;0.88;;
19617;SDS011;9956;51.006;13.670;2023-09-19T09:46:09;2.60;;;1.08;;
19617;SDS011;9956;51.006;13.670;2023-09-19T09:51:29;1.85;;;0.80;;
19617;SDS011;9956;51.006;13.670;2023-09-19T09:56:31;1.55;;;0.90;;
19617;SDS011;9956;51.006;13.670;2023-09-19T10:01:46;2.20;;;0.95;;
19617;SDS011;9956;51.006;13.670;2023-09-19T10:06:49;2.10;;;0.90;;
19617;SDS011;9956;51.006;13.670;2023-09-19T10:12:00;3.10;;;0.80;;
19617;SDS011;9956;51.006;13.670;2023-09-19T10:17:04;3.13;;;0.90;;
19617;SDS011;9956;51.006;13.670;2023-09-19T10:22:06;3.08;;;0.77;;
19617;SDS011;9956;51.006;13.670;2023-09-19T10:27:08;3.00;;;0.90;;
19617;SDS011;9956;51.006;13.670;2023-09-19T10:32:09;1.42;;;0.73;;
19617;SDS011;9956;51.006;13.670;2023-09-19T10:37:17;2.03;;;1.30;;
19617;SDS011;9956;51.006;13.670;2023-09-19T10:42:21;1.95;;;0.73;;
19617;SDS011;9956;51.006;13.670;2023-09-19T10:47:25;1.35;;;0.90;;
19617;SDS011;9956;51.006;13.670;2023-09-19T10:52:26;0.93;;;0.77;;
19617;SDS011;9956;51.006;13.670;2023-09-19T10:57:27;2.30;;;1.00;;
19617;SDS011;9956;51.006;13.670;2023-09-19T11:02:28;2.63;;;1.00;;
19617;SDS011;9956;51.006;13.670;2023-09-19T11:07:28;2.05;;;0.90;;
19617;SDS011;9956;51.006;13.670;2023-09-19T11:17:34;1.42;;;0.85;;
19617;SDS011;9956;51.006;13.670;2023-09-19T11:33:15;3.45;;;1.25;;
19617;SDS011;9956;51.006;13.670;2023-09-19T11:43:53;2.55;;;1.38;;
19617;SDS011;9956;51.006;13.670;2023-09-19T11:49:07;2.45;;;1.10;;
19617;SDS011;9956;51.006;13.670;2023-09-19T11:54:10;1.55;;;1.42;;
19617;SDS011;9956;51.006;13.670;2023-09-19T11:59:25;2.35;;;1.40;;
19617;SDS011;9956;51.006;13.670;2023-09-19T12:04:37;2.67;;;1.40;;
19617;SDS011;9956;51.006;13.670;2023-09-19T12:09:39;4.90;;;1.38;;
19617;SDS011;9956;51.006;13.670;2023-09-19T12:14:43;4.68;;;1.25;;
19617;SDS011;9956;51.006;13.670;2023-09-19T12:19:51;2.78;;;1.30;;
19617;SDS011;9956;51.006;13.670;2023-09-19T12:24:53;3.80;;;1.17;;
19617;SDS011;9956;51.006;13.670;2023-09-19T12:29:54;4.90;;;1.15;;
19617;SDS011;9956;51.006;13.670;2023-09-19T12:34:56;3.15;;;1.20;;
19617;SDS011;9956;51.006;13.670;2023-09-19T12:40:05;3.90;;;1.13;;
19617;SDS011;9956;51.006;13.670;2023-09-19T12:45:17;2.42;;;1.10;;
19617;SDS011;9956;51.006;13.670;2023-09-19T12:50:18;1.52;;;0.85;;
19617;SDS011;9956;51.006;13.670;2023-09-19T12:55:29;3.25;;;1.30;;
19617;SDS011;9956;51.006;13.670;2023-09-19T13:05:54;5.07;;;1.08;;
19617;SDS011;9956;51.006;13.670;2023-09-19T13:11:05;3.38;;;1.27;;
19617;SDS011;9956;51.006;13.670;2023-09-19T13:16:10;2.25;;;1.35;;
19617;SDS011;9956;51.006;13.670;2023-09-19T13:21:14;2.05;;;1.17;;
19617;SDS011;9956;51.006;13.670;2023-09-19T13:26:24;3.60;;;1.35;;
19617;SDS011;9956;51.006;13.670;2023-09-19T13:31:31;4.63;;;1.40;;
19617;SDS011;9956;51.006;13.670;2023-09-19T13:36:32;1.58;;;1.00;;
19617;SDS011;9956;51.006;13.670;2023-09-19T13:41:33;2.75;;;1.20;;
19617;SDS011;9956;51.006;13.670;2023-09-19T13:46:36;2.05;;;1.20;;
19617;SDS011;9956;51.006;13.670;2023-09-19T13:51:37;1.95;;;1.55;;
19617;SDS011;9956;51.006;13.670;2023-09-19T13:56:37;3.53;;;1.48;;
19617;SDS011;9956;51.006;13.670;2023-09-19T14:01:38;5.35;;;1.77;;
19617;SDS011;9956;51.006;13.670;2023-09-19T14:06:41;3.00;;;1.70;;
19617;SDS011;9956;51.006;13.670;2023-09-19T14:11:42;2.60;;;1.60;;
19617;SDS011;9956;51.006;13.670;2023-09-19T14:16:42;3.03;;;1.45;;
19617;SDS011;9956;51.006;13.670;2023-09-19T14:21:43;1.65;;;1.30;;
19617;SDS011;9956;51.006;13.670;2023-09-19T14:26:44;1.75;;;1.50;;
19617;SDS011;9956;51.006;13.670;2023-09-19T14:31:45;2.35;;;1.45;;
19617;SDS011;9956;51.006;13.670;2023-09-19T14:36:46;2.22;;;1.58;;
19617;SDS011;9956;51.006;13.670;2023-09-19T14:41:46;4.30;;;1.95;;
19617;SDS011;9956;51.006;13.670;2023-09-19T14:46:47;4.25;;;1.80;;
19617;SDS011;9956;51.006;13.670;2023-09-19T14:51:47;5.63;;;1.98;;
19617;SDS011;9956;51.006;13.670;2023-09-19T14:56:48;4.35;;;2.28;;
19617;SDS011;9956;51.006;13.670;2023-09-19T15:01:54;3.47;;;2.05;;
19617;SDS011;9956;51.006;13.670;2023-09-19T15:06:54;3.75;;;1.85;;
19617;SDS011;9956;51.006;13.670;2023-09-19T15:11:55;3.25;;;2.03;;
19617;SDS011;9956;51.006;13.670;2023-09-19T15:16:55;1.88;;;1.40;;
19617;SDS011;9956;51.006;13.670;2023-09-19T15:21:56;3.25;;;1.85;;
19617;SDS011;9956;51.006;13.670;2023-09-19T15:26:58;3.97;;;1.75;;
19617;SDS011;9956;51.006;13.670;2023-09-19T15:31:58;2.80;;;1.80;;
19617;SDS011;9956;51.006;13.670;2023-09-19T15:37:02;3.17;;;1.90;;
19617;SDS011;9956;51.006;13.670;2023-09-19T15:42:02;3.42;;;1.88;;
19617;SDS011;9956;51.006;13.670;2023-09-19T15:47:03;2.10;;;1.42;;
19617;SDS011;9956;51.006;13.670;2023-09-19T15:52:04;3.38;;;1.90;;
19617;SDS011;9956;51.006;13.670;2023-09-19T15:57:05;3.60;;;1.92;;
19617;SDS011;9956;51.006;13.670;2023-09-19T16:02:05;4.35;;;2.03;;
19617;SDS011;9956;51.006;13.670;2023-09-19T16:07:06;3.25;;;2.20;;
19617;SDS011;9956;51.006;13.670;2023-09-19T16:12:06;6.25;;;2.17;;
19617;SDS011;9956;51.006;13.670;2023-09-19T16:17:09;4.63;;;2.30;;
19617;SDS011;9956;51.006;13.670;2023-09-19T16:22:10;4.47;;;2.00;;
19617;SDS011;9956;51.006;13.670;2023-09-19T16:27:11;3.38;;;2.42;;
19617;SDS011;9956;51.006;13.670;2023-09-19T16:32:12;4.03;;;2.08;;
19617;SDS011;9956;51.006;13.670;2023-09-19T16:37:12;3.50;;;2.17;;
19617;SDS011;9956;51.006;13.670;2023-09-19T16:42:14;4.28;;;2.22;;
19617;SDS011;9956;51.006;13.670;2023-09-19T16:47:16;4.00;;;2.80;;
19617;SDS011;9956;51.006;13.670;2023-09-19T16:52:16;3.08;;;2.00;;
19617;SDS011;9956;51.006;13.670;2023-09-19T16:57:17;3.30;;;2.20;;
19617;SDS011;9956;51.006;13.670;2023-09-19T17:02:17;4.90;;;2.45;;
19617;SDS011;9956;51.006;13.670;2023-09-19T17:07:18;4.57;;;2.55;;
19617;SDS011;9956;51.006;13.670;2023-09-19T17:12:19;3.72;;;2.15;;
19617;SDS011;9956;51.006;13.670;2023-09-19T17:17:20;3.58;;;2.00;;
19617;SDS011;9956;51.006;13.670;2023-09-19T17:22:20;5.75;;;2.47;;
19617;SDS011;9956;51.006;13.670;2023-09-19T17:27:21;3.65;;;2.42;;
19617;SDS011;9956;51.006;13.670;2023-09-19T17:32:21;5.00;;;2.47;;
19617;SDS011;9956;51.006;13.670;2023-09-19T17:37:22;3.78;;;2.88;;
19617;SDS011;9956;51.006;13.670;2023-09-19T17:42:23;4.25;;;2.67;;
19617;SDS011;9956;51.006;13.670;2023-09-19T17:47:23;4.22;;;2.55;;
19617;SDS011;9956;51.006;13.670;2023-09-19T17:52:24;4.78;;;2.85;;
19617;SDS011;9956;51.006;13.670;2023-09-19T17:57:27;4.13;;;2.85;;
19617;SDS011;9956;51.006;13.670;2023-09-19T18:02:27;6.10;;;2.42;;
19617;SDS011;9956;51.006;13.670;2023-09-19T18:07:28;3.17;;;2.35;;
19617;SDS011;9956;51.006;13.670;2023-09-19T18:12:30;4.57;;;2.63;;
19617;SDS011;9956;51.006;13.670;2023-09-19T18:17:31;4.95;;;2.30;;
19617;SDS011;9956;51.006;13.670;2023-09-19T18:22:32;5.82;;;2.25;;
19617;SDS011;9956;51.006;13.670;2023-09-19T18:27:33;4.25;;;2.50;;
19617;SDS011;9956;51.006;13.670;2023-09-19T18:32:35;3.22;;;1.95;;
19617;SDS011;9956;51.006;13.670;2023-09-19T18:37:38;3.53;;;2.40;;
19617;SDS011;9956;51.006;13.670;2023-09-19T18:42:39;7.22;;;2.15;;
19617;SDS011;9956;51.006;13.670;2023-09-19T18:47:41;3.80;;;2.22;;
19617;SDS011;9956;51.006;13.670;2023-09-19T18:52:41;5.57;;;2.40;;
19617;SDS011;9956;51.006;13.670;2023-09-19T18:57:43;3.90;;;2.10;;
19617;SDS011;9956;51.006;13.670;2023-09-19T19:02:44;2.97;;;2.10;;
19617;SDS011;9956;51.006;13.670;2023-09-19T19:07:44;3.10;;;1.90;;
19617;SDS011;9956;51.006;13.670;2023-09-19T19:12:45;5.40;;;2.28;;
19617;SDS011;9956;51.006;13.670;2023-09-19T19:17:46;3.22;;;2.00;;
19617;SDS011;9956;51.006;13.670;2023-09-19T19:22:46;2.88;;;2.00;;
19617;SDS011;9956;51.006;13.670;2023-09-19T19:27:47;3.53;;;2.20;;
19617;SDS011;9956;51.006;13.670;2023-09-19T19:32:47;2.92;;;1.65;;
19617;SDS011;9956;51.006;13.670;2023-09-19T19:37:51;2.67;;;1.98;;
19617;SDS011;9956;51.006;13.670;2023-09-19T19:42:51;3.53;;;1.70;;
19617;SDS011;9956;51.006;13.670;2023-09-19T19:47:52;3.63;;;2.03;;
19617;SDS011;9956;51.006;13.670;2023-09-19T19:52:53;1.63;;;1.38;;
19617;SDS011;9956;51.006;13.670;2023-09-19T19:57:53;2.90;;;1.63;;
19617;SDS011;9956;51.006;13.670;2023-09-19T20:02:58;3.05;;;1.95;;
19617;SDS011;9956;51.006;13.670;2023-09-19T20:07:59;3.63;;;1.90;;
19617;SDS011;9956;51.006;13.670;2023-09-19T20:13:00;3.50;;;1.77;;
19617;SDS011;9956;51.006;13.670;2023-09-19T20:18:01;4.15;;;2.13;;
19617;SDS011;9956;51.006;13.670;2023-09-19T20:23:02;5.80;;;2.00;;
19617;SDS011;9956;51.006;13.670;2023-09-19T20:28:03;2.88;;;1.70;;
19617;SDS011;9956;51.006;13.670;2023-09-19T20:33:04;2.40;;;1.70;;
19617;SDS011;9956;51.006;13.670;2023-09-19T20:38:05;4.10;;;1.73;;
19617;SDS011;9956;51.006;13.670;2023-09-19T20:43:06;3.65;;;2.10;;
19617;SDS011;9956;51.006;13.670;2023-09-19T20:48:10;3.00;;;1.75;;
19617;SDS011;9956;51.006;13.670;2023-09-19T20:53:11;4.03;;;2.20;;
19617;SDS011;9956;51.006;13.670;2023-09-19T20:58:11;3.22;;;1.90;;
19617;SDS011;9956;51.006;13.670;2023-09-19T21:03:12;3.35;;;1.40;;
19617;SDS011;9956;51.006;13.670;2023-09-19T21:08:17;3.10;;;1.50;;
19617;SDS011;9956;51.006;13.670;2023-09-19T21:13:18;5.63;;;1.80;;
19617;SDS011;9956;51.006;13.670;2023-09-19T21:18:19;1.60;;;1.50;;
19617;SDS011;9956;51.006;13.670;2023-09-19T21:23:19;2.47;;;1.40;;
19617;SDS011;9956;51.006;13.670;2023-09-19T21:28:20;1.50;;;1.35;;
19617;SDS011;9956;51.006;13.670;2023-09-19T21:33:21;4.63;;;1.92;;
19617;SDS011;9956;51.006;13.670;2023-09-19T21:38:22;2.78;;;1.58;;
19617;SDS011;9956;51.006;13.670;2023-09-19T21:43:22;2.60;;;1.80;;
19617;SDS011;9956;51.006;13.670;2023-09-19T21:48:23;3.42;;;1.35;;
19617;SDS011;9956;51.006;13.670;2023-09-19T21:53:23;3.97;;;1.70;;
19617;SDS011;9956;51.006;13.670;2023-09-19T21:58:24;5.28;;;1.55;;
19617;SDS011;9956;51.006;13.670;2023-09-19T22:03:24;1.63;;;1.38;;
19617;SDS011;9956;51.006;13.670;2023-09-19T22:08:25;3.90;;;1.42;;
19617;SDS011;9956;51.006;13.670;2023-09-19T22:13:25;5.20;;;1.50;;
19617;SDS011;9956;51.006;13.670;2023-09-19T22:18:29;2.35;;;1.40;;
19617;SDS011;9956;51.006;13.670;2023-09-19T22:23:30;3.40;;;1.40;;
19617;SDS011;9956;51.006;13.670;2023-09-19T22:28:36;1.92;;;1.40;;
19617;SDS011;9956;51.006;13.670;2023-09-19T22:33:41;2.22;;;1.50;;
19617;SDS011;9956;51.006;13.670;2023-09-19T22:38:42;2.03;;;1.38;;
19617;SDS011;9956;51.006;13.670;2023-09-19T22:43:43;5.40;;;1.48;;
19617;SDS011;9956;51.006;13.670;2023-09-19T22:48:48;5.38;;;1.52;;
19617;SDS011;9956;51.006;13.670;2023-09-19T22:53:50;3.78;;;1.45;;
19617;SDS011;9956;51.006;13.670;2023-09-19T22:58:59;6.20;;;1.65;;
19617;SDS011;9956;51.006;13.670;2023-09-19T23:04:01;2.55;;;1.45;;
19617;SDS011;9956;51.006;13.670;2023-09-19T23:09:11;2.83;;;1.33;;
19617;SDS011;9956;51.006;13.670;2023-09-19T23:14:16;2.63;;;1.10;;
19617;SDS011;9956;51.006;13.670;2023-09-19T23:19:17;4.35;;;1.73;;
19617;SDS011;9956;51.006;13.670;2023-09-19T23:24:28;1.48;;;0.88;;
19617;SDS011;9956;51.006;13.670;2023-09-19T23:29:29;3.45;;;1.70;;
19617;SDS011;9956;51.006;13.670;2023-09-19T23:34:31;3.92;;;1.35;;
19617;SDS011;9956;51.006;13.670;2023-09-19T23:39:33;4.38;;;1.25;;
19617;SDS011;9956;51.006;13.670;2023-09-19T23:44:33;2.15;;;1.20;;
19617;SDS011;9956;51.006;13.670;2023-09-19T23:49:34;3.45;;;1.20;;
19617;SDS011;9956;51.006;13.670;2023-09-19T23:54:35;2.47;;;1.48;;
19617;SDS011;9956;51.006;13.670;2023-09-19T23:59:40;3.28;;;1.35;;
